Terminal Aerodrome Forecast
Issued by NWS

Home | Current Version | Previous Version | Text Only | Print | Product List | Glossary On
Versions: 1 2 3 4 5 6 7 8 9 10 11 12 13 14 15 16 17 18
000
FTUS43 KDVN 151100
TAFBRL
TAF
KBRL 151130Z 1512/1612 17004KT P6SM VCTS SCT025CB OVC035
      TEMPO 1512/1514 3SM -TSRA BR BKN025CB
     FM151400 20006KT 5SM -SHRA BR VCTS OVC025CB
     FM151800 29007KT P6SM OVC025
      TEMPO 1518/1520 6SM -SHRA
     FM152300 34010KT P6SM BKN040
     FM160200 36004KT P6SM SCT250=

USA.gov is the U.S. government's official web portal to all federal, state and local government web resources and services.